Time;durP1;ratioP1;P1;durP2;ratioP2;P2;SDS_P1;SDS_P2;PMS_P1;PMS_P2;Temp;Humidity;BMP_temperature;BMP_pressure;BME280_temperature;BME280_humidity;BME280_pressure;Samples;Min_cycle;Max_cycle;Signal;HPM_P1;HPM_P2
2021/07/09 00:15:27;;;;;;;22.70;12.25;;;;;;;21.26;100.00;100575.11;714645;1175;114218;-72
2021/07/09 00:30:30;;;;;;;21.95;11.90;;;;;;;21.24;100.00;100585.17;714379;1178;115806;-73
2021/07/09 00:45:32;;;;;;;17.53;10.80;;;;;;;21.26;100.00;100661.32;714506;1200;114632;-72
2021/07/09 01:00:34;;;;;;;17.18;11.55;;;;;;;21.97;100.00;100672.72;714377;1200;115259;-73
2021/07/09 01:15:37;;;;;;;14.83;9.13;;;;;;;21.49;100.00;100584.66;714419;1199;115267;-72
2021/07/09 01:30:40;;;;;;;11.55;7.35;;;;;;;21.23;100.00;100570.19;714350;1202;114748;-72
2021/07/09 01:45:42;;;;;;;6.43;4.63;;;;;;;20.67;100.00;100523.13;714479;1205;115492;-72
2021/07/09 02:00:45;;;;;;;7.93;4.90;;;;;;;20.49;100.00;100523.62;714497;1178;113957;-73
2021/07/09 02:15:47;;;;;;;13.13;7.80;;;;;;;20.50;100.00;100511.95;714467;1200;113748;-73
2021/07/09 02:30:50;;;;;;;10.30;5.60;;;;;;;20.19;100.00;100537.11;714547;1203;114167;-72
2021/07/09 02:45:54;;;;;;;7.83;4.15;;;;;;;20.01;100.00;100447.88;714323;1176;114241;-74
2021/07/09 03:00:56;;;;;;;4.63;2.70;;;;;;;20.06;100.00;100415.34;715209;1200;114940;-71
2021/07/09 03:15:58;;;;;;;6.33;3.20;;;;;;;20.01;100.00;100394.64;715367;1200;114364;-72
2021/07/09 03:31:03;;;;;;;5.63;3.40;;;;;;;20.10;100.00;100428.08;714586;1193;113467;-73
2021/07/09 03:46:06;;;;;;;5.83;3.60;;;;;;;20.24;100.00;100426.31;714266;1199;114884;-73
2021/07/09 04:01:08;;;;;;;6.33;3.37;;;;;;;20.40;100.00;100406.55;714254;1199;115246;-73
2021/07/09 04:16:10;;;;;;;6.70;3.75;;;;;;;20.56;100.00;100417.88;714508;1199;114106;-73
2021/07/09 04:31:16;;;;;;;7.97;5.10;;;;;;;20.62;100.00;100411.77;714277;1199;115686;-73
2021/07/09 04:46:18;;;;;;;6.58;4.20;;;;;;;20.86;100.00;100431.77;714261;1176;114025;-72
2021/07/09 05:01:20;;;;;;;9.53;4.93;;;;;;;21.17;100.00;100426.94;714658;1177;115550;-73
2021/07/09 05:16:22;;;;;;;9.93;4.17;;;;;;;20.99;100.00;100449.67;714297;1200;114621;-73
2021/07/09 05:31:25;;;;;;;7.13;4.33;;;;;;;21.37;100.00;100454.49;714477;1176;114845;-73
2021/07/09 05:46:27;;;;;;;5.78;4.45;;;;;;;21.57;100.00;100449.20;714193;1176;114311;-73
2021/07/09 06:01:30;;;;;;;4.88;3.85;;;;;;;22.28;100.00;100461.09;714412;1199;113530;-73
2021/07/09 06:16:33;;;;;;;6.00;4.20;;;;;;;22.88;100.00;100491.39;714107;1176;113963;-74
2021/07/09 06:31:36;;;;;;;8.60;3.75;;;;;;;23.51;100.00;100481.84;714264;1200;114986;-73
2021/07/09 06:46:39;;;;;;;11.53;4.93;;;;;;;23.99;100.00;100526.02;714861;1199;114393;-74
2021/07/09 07:01:41;;;;;;;5.18;4.25;;;;;;;24.46;100.00;100529.11;714943;1199;115252;-71
2021/07/09 07:16:44;;;;;;;6.45;4.55;;;;;;;25.08;100.00;100531.74;714492;1199;114035;-72
2021/07/09 07:31:46;;;;;;;13.43;6.03;;;;;;;24.50;100.00;100624.14;714583;1199;114517;-72
2021/07/09 07:46:50;;;;;;;10.93;5.70;;;;;;;23.68;100.00;100691.02;714920;1205;114053;-80
2021/07/09 08:01:52;;;;;;;7.63;5.48;;;;;;;23.42;100.00;100690.90;716473;1177;114131;-80
2021/07/09 08:16:55;;;;;;;8.40;7.40;;;;;;;23.20;100.00;100693.00;715291;1199;114776;-76
2021/07/09 08:31:58;;;;;;;8.45;7.05;;;;;;;23.42;100.00;100676.67;714235;1200;113966;-78
2021/07/09 08:47:01;;;;;;;12.93;8.40;;;;;;;23.12;100.00;100721.79;714923;1177;114292;-78
2021/07/09 09:02:04;;;;;;;15.78;9.55;;;;;;;23.29;100.00;100609.81;714847;1202;115691;-73
2021/07/09 09:17:27;;;;;;;17.68;12.10;;;;;;;23.89;100.00;100491.67;714459;1199;116305;-72
2021/07/09 09:32:29;;;;;;;13.55;10.98;;;;;;;23.97;100.00;100416.41;714590;1199;114431;-73
2021/07/09 09:47:35;;;;;;;15.60;12.10;;;;;;;24.11;100.00;100384.93;714640;1177;114190;-84
2021/07/09 10:02:37;;;;;;;11.63;9.37;;;;;;;23.27;100.00;100318.35;716735;1177;114384;-86
2021/07/09 10:17:40;;;;;;;12.75;10.30;;;;;;;23.90;100.00;100321.89;717007;1176;114307;-87
2021/07/09 10:32:47;;;;;;;9.98;8.88;;;;;;;24.56;100.00;100426.70;717154;1176;114802;-85
2021/07/09 10:47:53;;;;;;;9.00;7.03;;;;;;;24.30;100.00;100478.77;717729;1199;114161;-86
2021/07/09 11:03:04;;;;;;;9.15;8.08;;;;;;;24.04;100.00;100441.27;715242;1200;114346;-76
2021/07/09 11:18:12;;;;;;;11.87;10.07;;;;;;;25.58;100.00;100419.78;714758;1199;114284;-74
2021/07/09 11:33:23;;;;;;;10.93;9.83;;;;;;;26.10;100.00;100410.23;716651;1199;115842;-75
2021/07/09 11:48:25;;;;;;;11.00;9.80;;;;;;;26.49;100.00;100410.52;715575;1200;114555;-74
2021/07/09 12:03:27;;;;;;;10.48;9.38;;;;;;;26.88;100.00;100445.73;719274;1199;114270;-75
2021/07/09 12:18:30;;;;;;;14.10;9.13;;;;;;;26.49;100.00;100518.91;716651;1199;114252;-74
2021/07/09 12:33:36;;;;;;;11.30;9.40;;;;;;;26.78;100.00;100531.63;715304;1199;114221;-73
2021/07/09 12:48:44;;;;;;;10.28;8.78;;;;;;;26.65;100.00;100533.50;715257;1200;114517;-78
2021/07/09 13:03:46;;;;;;;;;;;;;;;27.65;100.00;100557.58;715572;1200;115021;-78
2021/07/09 13:18:57;;;;;;;8.40;7.15;;;;;;;28.19;100.00;100513.17;716516;1176;101237;-78
2021/07/09 13:33:59;;;;;;;10.10;8.33;;;;;;;27.14;100.00;100486.60;715031;1180;115266;-75
2021/07/09 13:49:03;;;;;;;10.67;9.37;;;;;;;26.19;100.00;100441.88;715037;1199;114826;-79
2021/07/09 14:04:05;;;;;;;14.93;9.83;;;;;;;26.09;100.00;100379.84;715912;1199;114065;-78
2021/07/09 14:19:07;;;;;;;11.17;8.73;;;;;;;25.88;100.00;100322.13;715674;1203;115688;-79
2021/07/09 14:34:09;;;;;;;13.05;5.90;;;;;;;26.00;100.00;100266.50;717684;1199;114914;-79
2021/07/09 14:49:11;;;;;;;11.83;9.87;;;;;;;25.80;100.00;100322.49;715239;1199;114828;-79
2021/07/09 15:04:14;;;;;;;10.65;9.20;;;;;;;25.57;100.00;100341.06;716055;1200;114153;-82
2021/07/09 15:19:16;;;;;;;14.93;11.48;;;;;;;25.56;100.00;100309.91;717091;1182;114476;-83
2021/07/09 15:34:18;;;;;;;32.27;18.47;;;;;;;25.43;100.00;100322.74;716680;1200;114141;-82
2021/07/09 15:49:21;;;;;;;28.68;16.88;;;;;;;24.96;100.00;100367.21;716591;1199;115489;-81
2021/07/09 16:04:24;;;;;;;16.73;12.43;;;;;;;24.47;100.00;100461.05;714688;1191;114689;-82
2021/07/09 16:19:26;;;;;;;13.03;10.13;;;;;;;23.80;100.00;100590.20;716448;1199;115934;-83
2021/07/09 16:34:28;;;;;;;22.43;18.07;;;;;;;22.74;100.00;100643.86;715077;1178;114215;-84
2021/07/09 16:49:34;;;;;;;10.70;7.88;;;;;;;22.07;100.00;100630.42;716322;1200;115140;-81
2021/07/09 17:04:40;;;;;;;9.67;6.83;;;;;;;21.51;100.00;100588.78;714863;1197;114173;-83
2021/07/09 17:19:44;;;;;;;11.50;7.43;;;;;;;21.72;100.00;100502.42;714752;1200;114993;-78
2021/07/09 17:34:46;;;;;;;14.63;8.45;;;;;;;21.70;100.00;100500.98;714512;1200;113575;-77
2021/07/09 17:49:48;;;;;;;25.78;13.83;;;;;;;21.56;100.00;100409.38;716027;1199;114069;-85
2021/07/09 18:04:51;;;;;;;11.68;8.25;;;;;;;21.23;100.00;100431.48;717659;1200;114892;-85
2021/07/09 18:19:53;;;;;;;13.03;7.70;;;;;;;20.99;100.00;100399.00;717711;1200;114257;-86
2021/07/09 18:34:55;;;;;;;9.70;7.48;;;;;;;20.68;100.00;100338.19;717612;1186;114131;-86
2021/07/09 18:49:58;;;;;;;16.27;9.33;;;;;;;20.52;100.00;100164.36;716126;1200;115208;-79
2021/07/09 19:05:00;;;;;;;11.80;6.95;;;;;;;20.57;100.00;100321.75;714623;1176;114146;-79
2021/07/09 19:20:03;;;;;;;10.20;6.50;;;;;;;20.76;100.00;100340.72;715200;1199;114384;-86
2021/07/09 19:35:07;;;;;;;9.50;6.90;;;;;;;20.83;100.00;100338.07;717440;1200;114001;-86
2021/07/09 19:50:10;;;;;;;9.73;6.40;;;;;;;20.56;100.00;100353.93;719637;1177;115342;-85
2021/07/09 20:05:13;;;;;;;9.98;6.55;;;;;;;20.45;100.00;100328.69;717598;1199;113845;-86
2021/07/09 20:20:16;;;;;;;10.73;5.95;;;;;;;20.50;100.00;100312.92;717940;1200;114005;-85
2021/07/09 20:35:19;;;;;;;10.03;6.90;;;;;;;20.39;100.00;100302.83;718139;1199;115961;-84
2021/07/09 20:50:23;;;;;;;8.25;5.85;;;;;;;20.35;100.00;100321.08;718569;1176;114547;-83
2021/07/09 21:05:26;;;;;;;13.20;6.10;;;;;;;20.20;100.00;100344.36;717301;1177;114575;-82
2021/07/09 21:20:29;;;;;;;8.20;5.60;;;;;;;20.10;100.00;100326.90;719678;1177;114295;-83
2021/07/09 21:35:31;;;;;;;8.63;6.18;;;;;;;20.03;100.00;100323.36;715946;1177;114164;-83
2021/07/09 21:50:34;;;;;;;10.93;6.37;;;;;;;19.84;100.00;100313.45;716316;1199;114634;-82
2021/07/09 22:05:37;;;;;;;8.68;5.53;;;;;;;19.77;100.00;100321.36;717218;1177;114138;-81
2021/07/09 22:20:40;;;;;;;12.77;6.83;;;;;;;19.72;100.00;100332.58;715427;1200;113964;-82
2021/07/09 22:35:42;;;;;;;11.87;6.93;;;;;;;19.67;100.00;100371.44;715233;1200;114695;-82
2021/07/09 22:50:44;;;;;;;11.18;7.28;;;;;;;19.69;100.00;100356.08;718224;1185;113989;-82
2021/07/09 23:05:46;;;;;;;12.80;7.97;;;;;;;19.70;100.00;100353.22;718236;1199;114096;-83
2021/07/09 23:20:49;;;;;;;11.30;7.07;;;;;;;19.65;100.00;100371.64;718195;1200;115023;-82
2021/07/09 23:35:51;;;;;;;14.70;7.33;;;;;;;19.68;100.00;100362.44;734137;1199;114193;-83
2021/07/09 23:50:53;;;;;;;10.75;6.45;;;;;;;19.62;100.00;100356.03;718194;1180;114181;-84
